sensor_id;sensor_type;location;lat;lon;timestamp;temperature;humidity
46816;DHT22;32787;53.316;8.670;2023-07-20T00:01:04;14.30;91.00
46816;DHT22;32787;53.316;8.670;2023-07-20T00:03:29;14.30;91.40
46816;DHT22;32787;53.316;8.670;2023-07-20T00:05:55;14.30;91.40
46816;DHT22;32787;53.316;8.670;2023-07-20T00:08:21;14.30;91.50
46816;DHT22;32787;53.316;8.670;2023-07-20T00:10:46;14.30;91.10
46816;DHT22;32787;53.316;8.670;2023-07-20T00:13:12;14.30;91.50
46816;DHT22;32787;53.316;8.670;2023-07-20T00:15:38;14.20;91.60
46816;DHT22;32787;53.316;8.670;2023-07-20T00:18:07;14.00;91.90
46816;DHT22;32787;53.316;8.670;2023-07-20T00:20:32;14.00;92.20
46816;DHT22;32787;53.316;8.670;2023-07-20T00:22:58;14.10;92.10
46816;DHT22;32787;53.316;8.670;2023-07-20T00:25:24;14.20;92.30
46816;DHT22;32787;53.316;8.670;2023-07-20T00:27:50;14.20;92.10
46816;DHT22;32787;53.316;8.670;2023-07-20T00:30:16;14.30;91.90
46816;DHT22;32787;53.316;8.670;2023-07-20T00:32:42;14.30;91.80
46816;DHT22;32787;53.316;8.670;2023-07-20T00:35:09;14.30;91.70
46816;DHT22;32787;53.316;8.670;2023-07-20T00:37:35;14.10;91.80
46816;DHT22;32787;53.316;8.670;2023-07-20T00:40:00;14.30;91.90
46816;DHT22;32787;53.316;8.670;2023-07-20T00:42:26;14.20;91.90
46816;DHT22;32787;53.316;8.670;2023-07-20T00:44:52;14.10;92.00
46816;DHT22;32787;53.316;8.670;2023-07-20T00:47:17;14.10;92.20
46816;DHT22;32787;53.316;8.670;2023-07-20T00:49:43;14.00;92.40
46816;DHT22;32787;53.316;8.670;2023-07-20T00:52:10;14.00;92.40
46816;DHT22;32787;53.316;8.670;2023-07-20T00:54:37;14.00;92.30
46816;DHT22;32787;53.316;8.670;2023-07-20T00:57:04;14.00;92.50
46816;DHT22;32787;53.316;8.670;2023-07-20T00:59:30;14.10;92.40
46816;DHT22;32787;53.316;8.670;2023-07-20T01:01:55;14.10;92.40
46816;DHT22;32787;53.316;8.670;2023-07-20T01:04:21;14.10;92.30
46816;DHT22;32787;53.316;8.670;2023-07-20T01:09:45;14.10;92.40
46816;DHT22;32787;53.316;8.670;2023-07-20T01:14:46;14.00;92.70
46816;DHT22;32787;53.316;8.670;2023-07-20T01:17:12;14.00;92.60
46816;DHT22;32787;53.316;8.670;2023-07-20T01:19:39;14.00;92.70
46816;DHT22;32787;53.316;8.670;2023-07-20T01:33:25;13.90;93.40
46816;DHT22;32787;53.316;8.670;2023-07-20T01:35:57;14.10;93.50
46816;DHT22;32787;53.316;8.670;2023-07-20T01:38:24;14.10;93.40
46816;DHT22;32787;53.316;8.670;2023-07-20T01:40:51;13.90;93.40
46816;DHT22;32787;53.316;8.670;2023-07-20T01:43:17;14.00;93.40
46816;DHT22;32787;53.316;8.670;2023-07-20T01:45:43;14.00;93.40
46816;DHT22;32787;53.316;8.670;2023-07-20T01:48:09;13.90;93.50
46816;DHT22;32787;53.316;8.670;2023-07-20T01:50:35;13.90;93.70
46816;DHT22;32787;53.316;8.670;2023-07-20T01:53:01;14.00;93.60
46816;DHT22;32787;53.316;8.670;2023-07-20T01:55:27;14.00;93.50
46816;DHT22;32787;53.316;8.670;2023-07-20T01:57:53;14.00;93.70
46816;DHT22;32787;53.316;8.670;2023-07-20T02:00:18;14.10;93.60
46816;DHT22;32787;53.316;8.670;2023-07-20T02:02:46;14.10;93.50
46816;DHT22;32787;53.316;8.670;2023-07-20T02:05:12;14.00;93.60
46816;DHT22;32787;53.316;8.670;2023-07-20T02:07:38;14.10;93.50
46816;DHT22;32787;53.316;8.670;2023-07-20T02:10:04;14.10;93.60
46816;DHT22;32787;53.316;8.670;2023-07-20T02:12:30;14.10;93.70
46816;DHT22;32787;53.316;8.670;2023-07-20T02:14:55;14.10;93.50
46816;DHT22;32787;53.316;8.670;2023-07-20T02:17:21;14.00;93.60
46816;DHT22;32787;53.316;8.670;2023-07-20T02:19:46;14.10;93.70
46816;DHT22;32787;53.316;8.670;2023-07-20T02:22:15;14.30;93.70
46816;DHT22;32787;53.316;8.670;2023-07-20T02:24:42;14.10;93.50
46816;DHT22;32787;53.316;8.670;2023-07-20T02:27:07;14.10;93.60
46816;DHT22;32787;53.316;8.670;2023-07-20T02:29:33;14.10;93.70
46816;DHT22;32787;53.316;8.670;2023-07-20T02:31:59;14.00;93.80
46816;DHT22;32787;53.316;8.670;2023-07-20T02:34:25;14.10;93.60
46816;DHT22;32787;53.316;8.670;2023-07-20T02:36:50;14.00;93.70
46816;DHT22;32787;53.316;8.670;2023-07-20T02:39:16;14.10;93.90
46816;DHT22;32787;53.316;8.670;2023-07-20T02:41:41;14.20;93.80
46816;DHT22;32787;53.316;8.670;2023-07-20T02:44:07;14.10;93.70
46816;DHT22;32787;53.316;8.670;2023-07-20T02:46:33;14.10;93.60
46816;DHT22;32787;53.316;8.670;2023-07-20T02:48:59;14.00;93.50
46816;DHT22;32787;53.316;8.670;2023-07-20T02:51:25;14.20;93.70
46816;DHT22;32787;53.316;8.670;2023-07-20T02:53:50;14.20;93.50
46816;DHT22;32787;53.316;8.670;2023-07-20T02:56:16;14.10;93.60
46816;DHT22;32787;53.316;8.670;2023-07-20T02:58:43;14.10;93.50
46816;DHT22;32787;53.316;8.670;2023-07-20T03:01:09;14.10;93.60
46816;DHT22;32787;53.316;8.670;2023-07-20T03:03:38;14.00;93.70
46816;DHT22;32787;53.316;8.670;2023-07-20T03:06:04;14.00;93.80
46816;DHT22;32787;53.316;8.670;2023-07-20T03:08:30;13.90;93.80
46816;DHT22;32787;53.316;8.670;2023-07-20T03:10:55;14.00;93.90
46816;DHT22;32787;53.316;8.670;2023-07-20T03:13:21;14.00;93.80
46816;DHT22;32787;53.316;8.670;2023-07-20T03:15:46;14.10;93.90
46816;DHT22;32787;53.316;8.670;2023-07-20T03:18:12;14.10;93.70
46816;DHT22;32787;53.316;8.670;2023-07-20T03:20:38;14.00;93.60
46816;DHT22;32787;53.316;8.670;2023-07-20T03:23:04;14.10;93.70
46816;DHT22;32787;53.316;8.670;2023-07-20T03:25:30;14.00;93.80
46816;DHT22;32787;53.316;8.670;2023-07-20T03:27:55;13.90;93.80
46816;DHT22;32787;53.316;8.670;2023-07-20T03:30:21;13.90;93.90
46816;DHT22;32787;53.316;8.670;2023-07-20T03:32:47;14.00;93.80
46816;DHT22;32787;53.316;8.670;2023-07-20T03:35:12;14.00;93.80
46816;DHT22;32787;53.316;8.670;2023-07-20T03:37:38;14.10;93.80
46816;DHT22;32787;53.316;8.670;2023-07-20T03:40:04;14.00;93.60
46816;DHT22;32787;53.316;8.670;2023-07-20T03:42:30;14.00;93.60
46816;DHT22;32787;53.316;8.670;2023-07-20T03:44:56;13.90;93.50
46816;DHT22;32787;53.316;8.670;2023-07-20T03:47:21;13.90;93.60
46816;DHT22;32787;53.316;8.670;2023-07-20T03:49:47;13.80;93.60
46816;DHT22;32787;53.316;8.670;2023-07-20T03:52:13;13.90;93.70
46816;DHT22;32787;53.316;8.670;2023-07-20T03:54:38;13.80;93.80
46816;DHT22;32787;53.316;8.670;2023-07-20T03:57:04;13.80;93.70
46816;DHT22;32787;53.316;8.670;2023-07-20T03:59:30;13.80;93.70
46816;DHT22;32787;53.316;8.670;2023-07-20T04:01:55;13.60;93.80
46816;DHT22;32787;53.316;8.670;2023-07-20T04:04:21;13.70;93.80
46816;DHT22;32787;53.316;8.670;2023-07-20T04:06:47;13.60;93.80
46816;DHT22;32787;53.316;8.670;2023-07-20T04:09:13;13.60;93.80
46816;DHT22;32787;53.316;8.670;2023-07-20T04:11:38;13.80;94.00
46816;DHT22;32787;53.316;8.670;2023-07-20T04:14:04;13.60;93.90
46816;DHT22;32787;53.316;8.670;2023-07-20T04:16:30;13.60;94.00
46816;DHT22;32787;53.316;8.670;2023-07-20T04:18:56;13.60;93.90
46816;DHT22;32787;53.316;8.670;2023-07-20T04:21:22;13.50;93.90
46816;DHT22;32787;53.316;8.670;2023-07-20T04:23:47;13.60;93.90
46816;DHT22;32787;53.316;8.670;2023-07-20T04:26:13;13.50;93.80
46816;DHT22;32787;53.316;8.670;2023-07-20T04:28:40;13.50;93.90
46816;DHT22;32787;53.316;8.670;2023-07-20T04:31:14;13.60;93.80
46816;DHT22;32787;53.316;8.670;2023-07-20T04:33:40;13.60;93.90
46816;DHT22;32787;53.316;8.670;2023-07-20T04:36:06;13.60;93.80
46816;DHT22;32787;53.316;8.670;2023-07-20T04:38:33;13.70;93.60
46816;DHT22;32787;53.316;8.670;2023-07-20T04:40:58;13.80;93.60
46816;DHT22;32787;53.316;8.670;2023-07-20T04:43:24;13.60;93.40
46816;DHT22;32787;53.316;8.670;2023-07-20T04:45:50;13.60;93.70
46816;DHT22;32787;53.316;8.670;2023-07-20T04:48:17;13.60;93.70
46816;DHT22;32787;53.316;8.670;2023-07-20T04:50:44;13.60;93.70
46816;DHT22;32787;53.316;8.670;2023-07-20T04:53:13;13.70;93.70
46816;DHT22;32787;53.316;8.670;2023-07-20T04:55:39;13.70;93.60
46816;DHT22;32787;53.316;8.670;2023-07-20T04:58:06;13.70;93.80
46816;DHT22;32787;53.316;8.670;2023-07-20T05:00:35;13.80;93.70
46816;DHT22;32787;53.316;8.670;2023-07-20T05:03:00;13.80;93.70
46816;DHT22;32787;53.316;8.670;2023-07-20T05:05:26;13.90;93.60
46816;DHT22;32787;53.316;8.670;2023-07-20T05:07:51;13.80;93.60
46816;DHT22;32787;53.316;8.670;2023-07-20T05:10:17;13.90;93.50
46816;DHT22;32787;53.316;8.670;2023-07-20T05:12:43;13.80;93.40
46816;DHT22;32787;53.316;8.670;2023-07-20T05:15:09;13.90;93.60
46816;DHT22;32787;53.316;8.670;2023-07-20T05:17:35;14.00;93.50
46816;DHT22;32787;53.316;8.670;2023-07-20T05:20:01;14.10;93.40
46816;DHT22;32787;53.316;8.670;2023-07-20T05:22:26;14.30;93.30
46816;DHT22;32787;53.316;8.670;2023-07-20T05:24:52;14.30;93.00
46816;DHT22;32787;53.316;8.670;2023-07-20T05:27:17;14.30;92.90
46816;DHT22;32787;53.316;8.670;2023-07-20T05:29:44;14.30;93.00
46816;DHT22;32787;53.316;8.670;2023-07-20T05:32:10;14.30;93.00
46816;DHT22;32787;53.316;8.670;2023-07-20T05:34:35;14.70;92.90
46816;DHT22;32787;53.316;8.670;2023-07-20T05:37:01;14.60;92.60
46816;DHT22;32787;53.316;8.670;2023-07-20T05:39:27;14.70;92.30
46816;DHT22;32787;53.316;8.670;2023-07-20T05:41:52;14.60;92.10
46816;DHT22;32787;53.316;8.670;2023-07-20T05:44:18;14.30;92.00
46816;DHT22;32787;53.316;8.670;2023-07-20T05:46:43;14.40;92.30
46816;DHT22;32787;53.316;8.670;2023-07-20T05:49:10;14.30;92.10
46816;DHT22;32787;53.316;8.670;2023-07-20T05:51:35;14.10;92.30
46816;DHT22;32787;53.316;8.670;2023-07-20T05:54:01;14.00;92.40
46816;DHT22;32787;53.316;8.670;2023-07-20T05:56:27;14.10;92.60
46816;DHT22;32787;53.316;8.670;2023-07-20T05:58:53;14.20;92.60
46816;DHT22;32787;53.316;8.670;2023-07-20T06:01:18;14.40;92.70
46816;DHT22;32787;53.316;8.670;2023-07-20T06:03:44;14.40;92.50
46816;DHT22;32787;53.316;8.670;2023-07-20T06:06:10;14.60;92.30
46816;DHT22;32787;53.316;8.670;2023-07-20T06:08:37;14.60;92.20
46816;DHT22;32787;53.316;8.670;2023-07-20T06:11:03;14.80;91.00
46816;DHT22;32787;53.316;8.670;2023-07-20T06:13:29;14.80;91.20
46816;DHT22;32787;53.316;8.670;2023-07-20T06:15:55;14.80;91.70
46816;DHT22;32787;53.316;8.670;2023-07-20T06:18:22;14.90;91.40
46816;DHT22;32787;53.316;8.670;2023-07-20T06:20:51;14.80;90.90
46816;DHT22;32787;53.316;8.670;2023-07-20T06:23:19;14.80;91.10
46816;DHT22;32787;53.316;8.670;2023-07-20T06:25:45;14.80;91.30
46816;DHT22;32787;53.316;8.670;2023-07-20T06:28:11;14.70;91.00
46816;DHT22;32787;53.316;8.670;2023-07-20T06:30:36;14.50;91.20
46816;DHT22;32787;53.316;8.670;2023-07-20T06:33:02;14.70;91.00
46816;DHT22;32787;53.316;8.670;2023-07-20T06:35:27;14.60;90.90
46816;DHT22;32787;53.316;8.670;2023-07-20T06:37:53;14.40;91.00
46816;DHT22;32787;53.316;8.670;2023-07-20T06:40:19;14.60;91.50
46816;DHT22;32787;53.316;8.670;2023-07-20T06:42:44;14.50;91.20
46816;DHT22;32787;53.316;8.670;2023-07-20T06:45:10;14.40;91.40
46816;DHT22;32787;53.316;8.670;2023-07-20T06:47:39;14.50;91.40
46816;DHT22;32787;53.316;8.670;2023-07-20T06:50:06;14.80;91.50
46816;DHT22;32787;53.316;8.670;2023-07-20T06:52:32;14.80;91.10
46816;DHT22;32787;53.316;8.670;2023-07-20T06:54:58;14.70;90.80
46816;DHT22;32787;53.316;8.670;2023-07-20T06:57:24;14.80;90.40
46816;DHT22;32787;53.316;8.670;2023-07-20T06:59:50;15.00;89.80
46816;DHT22;32787;53.316;8.670;2023-07-20T07:02:15;14.80;89.60
46816;DHT22;32787;53.316;8.670;2023-07-20T07:04:42;15.00;89.50
46816;DHT22;32787;53.316;8.670;2023-07-20T07:07:07;15.10;88.70
46816;DHT22;32787;53.316;8.670;2023-07-20T07:09:34;15.00;89.20
46816;DHT22;32787;53.316;8.670;2023-07-20T07:12:00;15.10;89.20
46816;DHT22;32787;53.316;8.670;2023-07-20T07:14:25;15.10;89.20
46816;DHT22;32787;53.316;8.670;2023-07-20T07:16:51;15.30;89.40
46816;DHT22;32787;53.316;8.670;2023-07-20T07:19:16;15.30;87.70
46816;DHT22;32787;53.316;8.670;2023-07-20T07:21:42;15.50;86.50
46816;DHT22;32787;53.316;8.670;2023-07-20T07:24:08;15.30;87.70
46816;DHT22;32787;53.316;8.670;2023-07-20T07:26:36;15.30;87.50
46816;DHT22;32787;53.316;8.670;2023-07-20T07:29:01;15.30;87.60
46816;DHT22;32787;53.316;8.670;2023-07-20T07:31:29;15.50;85.90
46816;DHT22;32787;53.316;8.670;2023-07-20T07:33:55;15.60;85.90
46816;DHT22;32787;53.316;8.670;2023-07-20T07:36:21;15.50;83.60
46816;DHT22;32787;53.316;8.670;2023-07-20T07:38:47;15.60;84.70
46816;DHT22;32787;53.316;8.670;2023-07-20T07:41:13;15.80;83.60
46816;DHT22;32787;53.316;8.670;2023-07-20T07:43:39;15.90;83.90
46816;DHT22;32787;53.316;8.670;2023-07-20T07:46:04;16.00;84.30
46816;DHT22;32787;53.316;8.670;2023-07-20T07:48:30;16.00;82.70
46816;DHT22;32787;53.316;8.670;2023-07-20T07:50:56;16.10;82.20
46816;DHT22;32787;53.316;8.670;2023-07-20T07:53:21;16.20;81.90
46816;DHT22;32787;53.316;8.670;2023-07-20T07:55:50;16.10;80.70
46816;DHT22;32787;53.316;8.670;2023-07-20T07:58:16;16.10;81.70
46816;DHT22;32787;53.316;8.670;2023-07-20T08:00:41;16.20;82.70
46816;DHT22;32787;53.316;8.670;2023-07-20T08:03:08;16.20;80.40
46816;DHT22;32787;53.316;8.670;2023-07-20T08:05:34;16.20;80.70
46816;DHT22;32787;53.316;8.670;2023-07-20T08:08:03;16.20;80.20
46816;DHT22;32787;53.316;8.670;2023-07-20T08:10:31;16.30;79.70
46816;DHT22;32787;53.316;8.670;2023-07-20T08:12:57;16.30;80.90
46816;DHT22;32787;53.316;8.670;2023-07-20T08:15:23;16.50;79.80
46816;DHT22;32787;53.316;8.670;2023-07-20T08:17:48;16.30;79.50
46816;DHT22;32787;53.316;8.670;2023-07-20T08:20:17;16.40;80.60
46816;DHT22;32787;53.316;8.670;2023-07-20T08:22:43;16.30;82.40
46816;DHT22;32787;53.316;8.670;2023-07-20T08:25:09;16.60;78.90
46816;DHT22;32787;53.316;8.670;2023-07-20T08:27:35;16.70;79.70
46816;DHT22;32787;53.316;8.670;2023-07-20T08:30:01;16.90;81.20
46816;DHT22;32787;53.316;8.670;2023-07-20T08:32:27;16.90;77.80
46816;DHT22;32787;53.316;8.670;2023-07-20T08:34:52;17.00;78.20
46816;DHT22;32787;53.316;8.670;2023-07-20T08:37:18;17.00;77.20
46816;DHT22;32787;53.316;8.670;2023-07-20T08:39:44;16.90;75.50
46816;DHT22;32787;53.316;8.670;2023-07-20T08:42:09;16.90;76.00
46816;DHT22;32787;53.316;8.670;2023-07-20T08:44:38;16.80;77.70
46816;DHT22;32787;53.316;8.670;2023-07-20T08:47:06;16.80;78.90
46816;DHT22;32787;53.316;8.670;2023-07-20T08:49:32;16.80;79.20
46816;DHT22;32787;53.316;8.670;2023-07-20T08:51:59;16.80;77.70
46816;DHT22;32787;53.316;8.670;2023-07-20T08:54:28;16.60;78.10
46816;DHT22;32787;53.316;8.670;2023-07-20T08:56:55;16.80;79.10
46816;DHT22;32787;53.316;8.670;2023-07-20T08:59:23;17.20;79.70
46816;DHT22;32787;53.316;8.670;2023-07-20T09:01:51;17.40;77.40
46816;DHT22;32787;53.316;8.670;2023-07-20T09:04:19;17.30;75.80
46816;DHT22;32787;53.316;8.670;2023-07-20T09:06:45;17.60;78.60
46816;DHT22;32787;53.316;8.670;2023-07-20T09:09:10;17.70;74.60
46816;DHT22;32787;53.316;8.670;2023-07-20T09:11:36;17.50;76.00
46816;DHT22;32787;53.316;8.670;2023-07-20T09:14:11;17.00;76.70
46816;DHT22;32787;53.316;8.670;2023-07-20T09:16:54;16.60;79.20
46816;DHT22;32787;53.316;8.670;2023-07-20T09:19:20;16.30;80.90
46816;DHT22;32787;53.316;8.670;2023-07-20T09:21:50;16.30;80.20
46816;DHT22;32787;53.316;8.670;2023-07-20T09:24:18;16.30;80.40
46816;DHT22;32787;53.316;8.670;2023-07-20T09:26:45;16.40;82.30
46816;DHT22;32787;53.316;8.670;2023-07-20T09:29:14;16.50;79.90
46816;DHT22;32787;53.316;8.670;2023-07-20T09:31:39;16.70;80.50
46816;DHT22;32787;53.316;8.670;2023-07-20T09:34:06;17.00;78.10
46816;DHT22;32787;53.316;8.670;2023-07-20T09:36:36;17.10;79.40
46816;DHT22;32787;53.316;8.670;2023-07-20T09:39:02;17.50;75.60
46816;DHT22;32787;53.316;8.670;2023-07-20T09:41:29;17.80;75.20
46816;DHT22;32787;53.316;8.670;2023-07-20T09:43:54;17.80;78.00
46816;DHT22;32787;53.316;8.670;2023-07-20T09:46:20;17.70;73.60
46816;DHT22;32787;53.316;8.670;2023-07-20T09:48:53;17.60;73.70
46816;DHT22;32787;53.316;8.670;2023-07-20T09:51:22;17.30;72.50
46816;DHT22;32787;53.316;8.670;2023-07-20T09:53:49;17.20;74.70
46816;DHT22;32787;53.316;8.670;2023-07-20T09:56:16;17.40;74.30
46816;DHT22;32787;53.316;8.670;2023-07-20T09:58:44;17.60;74.50
46816;DHT22;32787;53.316;8.670;2023-07-20T10:01:11;17.60;73.40
46816;DHT22;32787;53.316;8.670;2023-07-20T10:03:41;17.80;70.30
46816;DHT22;32787;53.316;8.670;2023-07-20T10:06:10;17.80;71.40
46816;DHT22;32787;53.316;8.670;2023-07-20T10:08:41;17.90;72.00
46816;DHT22;32787;53.316;8.670;2023-07-20T10:11:08;18.00;70.80
46816;DHT22;32787;53.316;8.670;2023-07-20T10:13:38;18.30;72.60
46816;DHT22;32787;53.316;8.670;2023-07-20T10:16:12;18.70;70.10
46816;DHT22;32787;53.316;8.670;2023-07-20T10:19:05;18.60;67.50
46816;DHT22;32787;53.316;8.670;2023-07-20T10:21:35;18.60;64.30
46816;DHT22;32787;53.316;8.670;2023-07-20T10:24:03;18.80;67.80
46816;DHT22;32787;53.316;8.670;2023-07-20T10:26:29;19.10;67.50
46816;DHT22;32787;53.316;8.670;2023-07-20T10:28:55;19.10;69.50
46816;DHT22;32787;53.316;8.670;2023-07-20T10:31:23;18.80;68.80
46816;DHT22;32787;53.316;8.670;2023-07-20T10:33:49;18.00;70.80
46816;DHT22;32787;53.316;8.670;2023-07-20T10:36:16;17.80;72.70
46816;DHT22;32787;53.316;8.670;2023-07-20T10:38:44;17.80;70.90
46816;DHT22;32787;53.316;8.670;2023-07-20T10:41:21;17.80;72.00
46816;DHT22;32787;53.316;8.670;2023-07-20T10:43:48;17.80;72.50
46816;DHT22;32787;53.316;8.670;2023-07-20T10:46:14;18.10;70.30
46816;DHT22;32787;53.316;8.670;2023-07-20T10:48:59;18.30;70.30
46816;DHT22;32787;53.316;8.670;2023-07-20T10:51:25;18.70;69.70
46816;DHT22;32787;53.316;8.670;2023-07-20T10:53:51;18.70;67.90
46816;DHT22;32787;53.316;8.670;2023-07-20T10:56:22;18.80;70.30
46816;DHT22;32787;53.316;8.670;2023-07-20T10:58:48;19.30;70.70
46816;DHT22;32787;53.316;8.670;2023-07-20T11:01:16;19.70;64.60
46816;DHT22;32787;53.316;8.670;2023-07-20T11:03:43;20.00;64.60
46816;DHT22;32787;53.316;8.670;2023-07-20T11:11:37;20.30;64.00
46816;DHT22;32787;53.316;8.670;2023-07-20T11:14:05;20.10;63.80
46816;DHT22;32787;53.316;8.670;2023-07-20T11:16:36;20.20;61.10
46816;DHT22;32787;53.316;8.670;2023-07-20T11:19:10;20.10;63.00
46816;DHT22;32787;53.316;8.670;2023-07-20T11:21:43;20.00;62.70
46816;DHT22;32787;53.316;8.670;2023-07-20T11:24:09;20.10;64.30
46816;DHT22;32787;53.316;8.670;2023-07-20T11:26:46;20.10;65.40
46816;DHT22;32787;53.316;8.670;2023-07-20T11:29:12;20.10;65.20
46816;DHT22;32787;53.316;8.670;2023-07-20T11:31:40;19.90;65.40
46816;DHT22;32787;53.316;8.670;2023-07-20T11:34:10;19.80;65.10
46816;DHT22;32787;53.316;8.670;2023-07-20T11:36:36;19.60;66.80
46816;DHT22;32787;53.316;8.670;2023-07-20T11:39:02;19.00;67.60
46816;DHT22;32787;53.316;8.670;2023-07-20T11:41:31;18.80;68.30
46816;DHT22;32787;53.316;8.670;2023-07-20T11:43:57;18.40;69.20
46816;DHT22;32787;53.316;8.670;2023-07-20T11:46:22;18.40;71.10
46816;DHT22;32787;53.316;8.670;2023-07-20T11:48:48;18.30;69.90
46816;DHT22;32787;53.316;8.670;2023-07-20T11:51:15;18.00;71.10
46816;DHT22;32787;53.316;8.670;2023-07-20T11:53:43;18.10;71.40
46816;DHT22;32787;53.316;8.670;2023-07-20T11:56:09;18.00;72.50
46816;DHT22;32787;53.316;8.670;2023-07-20T11:58:35;18.00;73.70
46816;DHT22;32787;53.316;8.670;2023-07-20T12:01:00;18.00;73.50
46816;DHT22;32787;53.316;8.670;2023-07-20T12:03:27;17.90;73.30
46816;DHT22;32787;53.316;8.670;2023-07-20T12:05:53;18.00;75.10
46816;DHT22;32787;53.316;8.670;2023-07-20T12:08:18;18.50;74.20
46816;DHT22;32787;53.316;8.670;2023-07-20T12:10:44;18.90;72.70
46816;DHT22;32787;53.316;8.670;2023-07-20T12:13:11;18.80;71.20
46816;DHT22;32787;53.316;8.670;2023-07-20T12:15:37;18.80;70.90
46816;DHT22;32787;53.316;8.670;2023-07-20T12:18:03;18.80;72.10
46816;DHT22;32787;53.316;8.670;2023-07-20T12:20:30;18.80;71.70
46816;DHT22;32787;53.316;8.670;2023-07-20T12:22:58;19.10;72.40
46816;DHT22;32787;53.316;8.670;2023-07-20T12:25:32;19.30;72.00
46816;DHT22;32787;53.316;8.670;2023-07-20T12:28:00;19.40;72.40
46816;DHT22;32787;53.316;8.670;2023-07-20T12:30:28;19.50;69.90
46816;DHT22;32787;53.316;8.670;2023-07-20T12:32:53;19.40;68.60
46816;DHT22;32787;53.316;8.670;2023-07-20T12:35:19;19.50;65.20
46816;DHT22;32787;53.316;8.670;2023-07-20T12:37:45;19.30;66.60
46816;DHT22;32787;53.316;8.670;2023-07-20T12:40:14;19.40;67.50
46816;DHT22;32787;53.316;8.670;2023-07-20T12:42:39;19.50;66.60
46816;DHT22;32787;53.316;8.670;2023-07-20T12:45:05;19.70;66.90
46816;DHT22;32787;53.316;8.670;2023-07-20T12:47:31;20.90;65.40
46816;DHT22;32787;53.316;8.670;2023-07-20T12:49:57;22.30;59.70
46816;DHT22;32787;53.316;8.670;2023-07-20T12:52:22;23.20;53.80
46816;DHT22;32787;53.316;8.670;2023-07-20T12:54:48;24.30;57.00
46816;DHT22;32787;53.316;8.670;2023-07-20T12:57:14;24.80;48.40
46816;DHT22;32787;53.316;8.670;2023-07-20T12:59:39;25.80;47.10
46816;DHT22;32787;53.316;8.670;2023-07-20T13:02:05;25.50;51.00
46816;DHT22;32787;53.316;8.670;2023-07-20T13:04:31;25.20;47.80
46816;DHT22;32787;53.316;8.670;2023-07-20T13:06:57;25.60;45.70
46816;DHT22;32787;53.316;8.670;2023-07-20T13:09:24;26.50;46.90
46816;DHT22;32787;53.316;8.670;2023-07-20T13:11:50;26.80;46.30
46816;DHT22;32787;53.316;8.670;2023-07-20T13:14:17;25.30;48.20
46816;DHT22;32787;53.316;8.670;2023-07-20T13:16:42;24.50;49.40
46816;DHT22;32787;53.316;8.670;2023-07-20T13:19:08;24.20;49.00
46816;DHT22;32787;53.316;8.670;2023-07-20T13:21:33;23.40;52.40
46816;DHT22;32787;53.316;8.670;2023-07-20T13:23:59;23.30;50.60
46816;DHT22;32787;53.316;8.670;2023-07-20T13:26:25;22.60;54.20
46816;DHT22;32787;53.316;8.670;2023-07-20T13:28:51;22.90;52.80
46816;DHT22;32787;53.316;8.670;2023-07-20T13:31:16;24.80;49.50
46816;DHT22;32787;53.316;8.670;2023-07-20T13:33:43;24.80;48.40
46816;DHT22;32787;53.316;8.670;2023-07-20T13:36:08;23.10;51.50
46816;DHT22;32787;53.316;8.670;2023-07-20T13:38:34;21.90;54.90
46816;DHT22;32787;53.316;8.670;2023-07-20T13:40:59;21.20;57.30
46816;DHT22;32787;53.316;8.670;2023-07-20T13:43:25;20.60;59.70
46816;DHT22;32787;53.316;8.670;2023-07-20T13:45:50;20.30;60.80
46816;DHT22;32787;53.316;8.670;2023-07-20T13:48:16;19.70;62.60
46816;DHT22;32787;53.316;8.670;2023-07-20T13:50:45;19.20;63.70
46816;DHT22;32787;53.316;8.670;2023-07-20T13:53:11;18.70;67.30
46816;DHT22;32787;53.316;8.670;2023-07-20T13:55:37;18.10;70.60
46816;DHT22;32787;53.316;8.670;2023-07-20T13:58:03;18.00;71.40
46816;DHT22;32787;53.316;8.670;2023-07-20T14:00:30;18.20;71.00
46816;DHT22;32787;53.316;8.670;2023-07-20T14:02:58;18.30;72.20
46816;DHT22;32787;53.316;8.670;2023-07-20T14:05:24;18.30;70.10
46816;DHT22;32787;53.316;8.670;2023-07-20T14:07:50;18.40;71.10
46816;DHT22;32787;53.316;8.670;2023-07-20T14:10:16;18.60;70.60
46816;DHT22;32787;53.316;8.670;2023-07-20T14:12:43;19.10;67.50
46816;DHT22;32787;53.316;8.670;2023-07-20T14:15:10;19.90;66.60
46816;DHT22;32787;53.316;8.670;2023-07-20T14:17:35;20.40;61.50
46816;DHT22;32787;53.316;8.670;2023-07-20T14:20:02;22.00;60.30
46816;DHT22;32787;53.316;8.670;2023-07-20T14:22:30;24.40;55.50
46816;DHT22;32787;53.316;8.670;2023-07-20T14:24:56;26.10;47.30
46816;DHT22;32787;53.316;8.670;2023-07-20T14:27:22;26.20;45.10
46816;DHT22;32787;53.316;8.670;2023-07-20T14:29:47;26.60;44.90
46816;DHT22;32787;53.316;8.670;2023-07-20T14:32:13;26.30;44.40
46816;DHT22;32787;53.316;8.670;2023-07-20T14:34:39;27.20;42.60
46816;DHT22;32787;53.316;8.670;2023-07-20T14:37:06;26.90;42.90
46816;DHT22;32787;53.316;8.670;2023-07-20T14:39:32;26.40;43.80
46816;DHT22;32787;53.316;8.670;2023-07-20T14:41:58;24.10;48.60
46816;DHT22;32787;53.316;8.670;2023-07-20T14:44:24;22.70;51.20
46816;DHT22;32787;53.316;8.670;2023-07-20T14:46:50;23.00;52.60
46816;DHT22;32787;53.316;8.670;2023-07-20T14:49:16;24.10;50.20
46816;DHT22;32787;53.316;8.670;2023-07-20T14:51:43;24.80;47.70
46816;DHT22;32787;53.316;8.670;2023-07-20T14:54:12;26.00;47.00
46816;DHT22;32787;53.316;8.670;2023-07-20T14:56:39;25.20;46.20
46816;DHT22;32787;53.316;8.670;2023-07-20T14:59:05;24.60;48.70
46816;DHT22;32787;53.316;8.670;2023-07-20T15:01:31;24.00;48.90
46816;DHT22;32787;53.316;8.670;2023-07-20T15:03:57;24.80;47.70
46816;DHT22;32787;53.316;8.670;2023-07-20T15:06:23;25.30;46.30
46816;DHT22;32787;53.316;8.670;2023-07-20T15:08:48;24.60;47.90
46816;DHT22;32787;53.316;8.670;2023-07-20T15:11:14;25.10;47.00
46816;DHT22;32787;53.316;8.670;2023-07-20T15:13:40;25.70;46.30
46816;DHT22;32787;53.316;8.670;2023-07-20T15:16:08;26.10;45.20
46816;DHT22;32787;53.316;8.670;2023-07-20T15:18:35;26.20;45.50
46816;DHT22;32787;53.316;8.670;2023-07-20T15:21:00;25.90;44.20
46816;DHT22;32787;53.316;8.670;2023-07-20T15:23:26;24.50;47.60
46816;DHT22;32787;53.316;8.670;2023-07-20T15:25:51;24.10;50.50
46816;DHT22;32787;53.316;8.670;2023-07-20T15:28:17;25.20;47.50
46816;DHT22;32787;53.316;8.670;2023-07-20T15:30:43;25.90;44.80
46816;DHT22;32787;53.316;8.670;2023-07-20T15:33:08;25.90;46.60
46816;DHT22;32787;53.316;8.670;2023-07-20T15:35:34;25.80;47.20
46816;DHT22;32787;53.316;8.670;2023-07-20T15:37:59;25.60;47.00
46816;DHT22;32787;53.316;8.670;2023-07-20T15:40:25;24.70;50.30
46816;DHT22;32787;53.316;8.670;2023-07-20T15:42:51;24.90;48.10
46816;DHT22;32787;53.316;8.670;2023-07-20T15:45:16;24.70;50.30
46816;DHT22;32787;53.316;8.670;2023-07-20T15:47:42;23.80;50.70